sensor_id;sensor_type;location;lat;lon;timestamp;P1;durP1;ratioP1;P2;durP2;ratioP2
35312;SDS011;21425;50.454;30.466;2022-11-06T00:00:41;79.35;;;24.20;;
35312;SDS011;21425;50.454;30.466;2022-11-06T00:03:07;80.38;;;25.55;;
35312;SDS011;21425;50.454;30.466;2022-11-06T00:05:34;73.72;;;24.95;;
35312;SDS011;21425;50.454;30.466;2022-11-06T00:08:25;79.82;;;24.60;;
35312;SDS011;21425;50.454;30.466;2022-11-06T00:10:59;80.28;;;24.48;;
35312;SDS011;21425;50.454;30.466;2022-11-06T00:13:25;74.28;;;24.05;;
35312;SDS011;21425;50.454;30.466;2022-11-06T00:15:51;78.05;;;25.83;;
35312;SDS011;21425;50.454;30.466;2022-11-06T00:18:16;74.32;;;22.98;;
35312;SDS011;21425;50.454;30.466;2022-11-06T00:20:42;66.15;;;22.52;;
35312;SDS011;21425;50.454;30.466;2022-11-06T00:23:07;75.03;;;23.38;;
35312;SDS011;21425;50.454;30.466;2022-11-06T00:25:33;78.10;;;25.27;;
35312;SDS011;21425;50.454;30.466;2022-11-06T00:27:59;77.85;;;25.85;;
35312;SDS011;21425;50.454;30.466;2022-11-06T00:30:24;74.78;;;24.38;;
35312;SDS011;21425;50.454;30.466;2022-11-06T00:32:50;73.78;;;23.08;;
35312;SDS011;21425;50.454;30.466;2022-11-06T00:35:15;81.18;;;26.83;;
35312;SDS011;21425;50.454;30.466;2022-11-06T00:37:41;77.32;;;23.92;;
35312;SDS011;21425;50.454;30.466;2022-11-06T00:40:07;80.22;;;26.08;;
35312;SDS011;21425;50.454;30.466;2022-11-06T00:42:32;81.95;;;26.05;;
35312;SDS011;21425;50.454;30.466;2022-11-06T00:44:58;78.47;;;25.23;;
35312;SDS011;21425;50.454;30.466;2022-11-06T00:47:24;88.10;;;25.13;;
35312;SDS011;21425;50.454;30.466;2022-11-06T00:49:49;74.30;;;25.35;;
35312;SDS011;21425;50.454;30.466;2022-11-06T00:52:15;77.80;;;25.73;;
35312;SDS011;21425;50.454;30.466;2022-11-06T00:54:41;82.80;;;28.25;;
35312;SDS011;21425;50.454;30.466;2022-11-06T00:57:06;72.22;;;25.08;;
35312;SDS011;21425;50.454;30.466;2022-11-06T00:59:32;76.93;;;24.20;;
35312;SDS011;21425;50.454;30.466;2022-11-06T01:01:58;66.40;;;21.55;;
35312;SDS011;21425;50.454;30.466;2022-11-06T01:04:24;82.25;;;24.15;;
35312;SDS011;21425;50.454;30.466;2022-11-06T01:06:51;78.55;;;24.85;;
35312;SDS011;21425;50.454;30.466;2022-11-06T01:09:19;73.32;;;24.80;;
35312;SDS011;21425;50.454;30.466;2022-11-06T01:11:48;69.25;;;24.08;;
35312;SDS011;21425;50.454;30.466;2022-11-06T01:14:19;73.07;;;24.23;;
35312;SDS011;21425;50.454;30.466;2022-11-06T01:16:46;68.75;;;22.85;;
35312;SDS011;21425;50.454;30.466;2022-11-06T01:19:12;65.80;;;24.63;;
35312;SDS011;21425;50.454;30.466;2022-11-06T01:21:41;72.22;;;22.83;;
35312;SDS011;21425;50.454;30.466;2022-11-06T01:24:12;71.38;;;24.08;;
35312;SDS011;21425;50.454;30.466;2022-11-06T01:26:39;71.82;;;24.83;;
35312;SDS011;21425;50.454;30.466;2022-11-06T01:29:06;73.75;;;22.70;;
35312;SDS011;21425;50.454;30.466;2022-11-06T01:31:35;70.22;;;24.25;;
35312;SDS011;21425;50.454;30.466;2022-11-06T01:34:01;74.28;;;24.02;;
35312;SDS011;21425;50.454;30.466;2022-11-06T01:36:28;72.18;;;22.67;;
35312;SDS011;21425;50.454;30.466;2022-11-06T01:38:55;70.10;;;23.13;;
35312;SDS011;21425;50.454;30.466;2022-11-06T01:43:50;68.72;;;24.30;;
35312;SDS011;21425;50.454;30.466;2022-11-06T01:46:24;68.65;;;21.30;;
35312;SDS011;21425;50.454;30.466;2022-11-06T01:48:56;74.43;;;24.15;;
35312;SDS011;21425;50.454;30.466;2022-11-06T01:51:25;61.22;;;23.15;;
35312;SDS011;21425;50.454;30.466;2022-11-06T01:53:52;66.43;;;22.17;;
35312;SDS011;21425;50.454;30.466;2022-11-06T01:56:18;66.18;;;23.02;;
35312;SDS011;21425;50.454;30.466;2022-11-06T01:58:46;62.80;;;21.08;;
35312;SDS011;21425;50.454;30.466;2022-11-06T02:01:15;66.03;;;22.48;;
35312;SDS011;21425;50.454;30.466;2022-11-06T02:03:43;69.18;;;22.20;;
35312;SDS011;21425;50.454;30.466;2022-11-06T02:06:14;61.90;;;21.38;;
35312;SDS011;21425;50.454;30.466;2022-11-06T02:08:40;71.43;;;22.58;;
35312;SDS011;21425;50.454;30.466;2022-11-06T02:11:05;64.00;;;22.35;;
35312;SDS011;21425;50.454;30.466;2022-11-06T02:16:23;65.05;;;22.33;;
35312;SDS011;21425;50.454;30.466;2022-11-06T02:26:56;63.17;;;19.20;;
35312;SDS011;21425;50.454;30.466;2022-11-06T02:29:37;67.85;;;22.65;;
35312;SDS011;21425;50.454;30.466;2022-11-06T02:32:09;55.75;;;19.60;;
35312;SDS011;21425;50.454;30.466;2022-11-06T02:34:40;72.90;;;25.50;;
35312;SDS011;21425;50.454;30.466;2022-11-06T02:37:09;61.58;;;21.67;;
35312;SDS011;21425;50.454;30.466;2022-11-06T02:39:39;67.80;;;23.17;;
35312;SDS011;21425;50.454;30.466;2022-11-06T02:42:06;60.40;;;22.73;;
35312;SDS011;21425;50.454;30.466;2022-11-06T02:44:37;65.22;;;21.00;;
35312;SDS011;21425;50.454;30.466;2022-11-06T02:47:05;68.88;;;21.33;;
35312;SDS011;21425;50.454;30.466;2022-11-06T02:49:38;62.20;;;22.88;;
35312;SDS011;21425;50.454;30.466;2022-11-06T02:52:16;62.97;;;22.20;;
35312;SDS011;21425;50.454;30.466;2022-11-06T02:54:44;60.80;;;21.55;;
35312;SDS011;21425;50.454;30.466;2022-11-06T02:57:13;67.40;;;23.30;;
35312;SDS011;21425;50.454;30.466;2022-11-06T02:59:44;60.92;;;21.83;;
35312;SDS011;21425;50.454;30.466;2022-11-06T03:04:58;71.55;;;21.00;;
35312;SDS011;21425;50.454;30.466;2022-11-06T03:07:35;67.38;;;21.52;;
35312;SDS011;21425;50.454;30.466;2022-11-06T03:10:16;63.85;;;21.70;;
35312;SDS011;21425;50.454;30.466;2022-11-06T03:12:46;61.90;;;20.77;;
35312;SDS011;21425;50.454;30.466;2022-11-06T03:15:31;66.05;;;23.45;;
35312;SDS011;21425;50.454;30.466;2022-11-06T03:18:12;63.35;;;21.20;;
35312;SDS011;21425;50.454;30.466;2022-11-06T03:23:44;62.45;;;22.10;;
35312;SDS011;21425;50.454;30.466;2022-11-06T03:26:22;74.88;;;22.60;;
35312;SDS011;21425;50.454;30.466;2022-11-06T03:28:57;67.63;;;23.90;;
35312;SDS011;21425;50.454;30.466;2022-11-06T03:31:37;65.13;;;22.25;;
35312;SDS011;21425;50.454;30.466;2022-11-06T03:34:12;62.50;;;21.08;;
35312;SDS011;21425;50.454;30.466;2022-11-06T03:36:46;64.93;;;23.52;;
35312;SDS011;21425;50.454;30.466;2022-11-06T03:39:20;64.88;;;21.08;;
35312;SDS011;21425;50.454;30.466;2022-11-06T03:41:53;75.65;;;23.48;;
35312;SDS011;21425;50.454;30.466;2022-11-06T03:44:35;71.73;;;22.97;;
35312;SDS011;21425;50.454;30.466;2022-11-06T03:49:35;70.93;;;24.27;;
35312;SDS011;21425;50.454;30.466;2022-11-06T03:52:10;68.70;;;22.48;;
35312;SDS011;21425;50.454;30.466;2022-11-06T03:54:48;73.60;;;21.85;;
35312;SDS011;21425;50.454;30.466;2022-11-06T03:57:24;68.72;;;23.58;;
35312;SDS011;21425;50.454;30.466;2022-11-06T04:00:14;63.20;;;22.08;;
35312;SDS011;21425;50.454;30.466;2022-11-06T04:02:45;70.70;;;24.25;;
35312;SDS011;21425;50.454;30.466;2022-11-06T04:05:28;72.65;;;25.45;;
35312;SDS011;21425;50.454;30.466;2022-11-06T04:07:58;74.45;;;23.80;;
35312;SDS011;21425;50.454;30.466;2022-11-06T04:10:44;72.38;;;25.48;;
35312;SDS011;21425;50.454;30.466;2022-11-06T04:13:33;73.47;;;23.77;;
35312;SDS011;21425;50.454;30.466;2022-11-06T04:16:19;73.78;;;25.63;;
35312;SDS011;21425;50.454;30.466;2022-11-06T04:18:45;79.05;;;24.08;;
35312;SDS011;21425;50.454;30.466;2022-11-06T04:27:14;73.75;;;23.05;;
35312;SDS011;21425;50.454;30.466;2022-11-06T04:30:08;70.25;;;22.75;;
35312;SDS011;21425;50.454;30.466;2022-11-06T04:41:06;64.20;;;23.35;;
35312;SDS011;21425;50.454;30.466;2022-11-06T04:46:20;73.82;;;23.88;;
35312;SDS011;21425;50.454;30.466;2022-11-06T04:48:51;84.63;;;25.00;;
35312;SDS011;21425;50.454;30.466;2022-11-06T04:51:18;76.40;;;23.73;;
35312;SDS011;21425;50.454;30.466;2022-11-06T04:53:48;72.85;;;25.10;;
35312;SDS011;21425;50.454;30.466;2022-11-06T04:56:20;75.85;;;23.58;;
35312;SDS011;21425;50.454;30.466;2022-11-06T04:58:52;79.03;;;25.40;;
35312;SDS011;21425;50.454;30.466;2022-11-06T05:01:17;74.38;;;21.30;;
35312;SDS011;21425;50.454;30.466;2022-11-06T05:03:43;66.85;;;22.63;;
35312;SDS011;21425;50.454;30.466;2022-11-06T05:06:09;74.60;;;21.95;;
35312;SDS011;21425;50.454;30.466;2022-11-06T05:08:34;91.20;;;25.70;;
35312;SDS011;21425;50.454;30.466;2022-11-06T05:11:00;81.43;;;23.70;;
35312;SDS011;21425;50.454;30.466;2022-11-06T05:13:25;83.20;;;27.70;;
35312;SDS011;21425;50.454;30.466;2022-11-06T05:15:57;83.40;;;24.73;;
35312;SDS011;21425;50.454;30.466;2022-11-06T05:18:24;79.55;;;26.27;;
35312;SDS011;21425;50.454;30.466;2022-11-06T05:20:50;80.35;;;26.02;;
35312;SDS011;21425;50.454;30.466;2022-11-06T05:23:39;92.82;;;25.48;;
35312;SDS011;21425;50.454;30.466;2022-11-06T05:26:05;87.80;;;25.20;;
35312;SDS011;21425;50.454;30.466;2022-11-06T05:28:31;88.30;;;24.65;;
35312;SDS011;21425;50.454;30.466;2022-11-06T05:30:57;89.50;;;27.95;;
35312;SDS011;21425;50.454;30.466;2022-11-06T05:33:22;79.95;;;26.60;;
35312;SDS011;21425;50.454;30.466;2022-11-06T05:35:48;84.43;;;26.95;;
35312;SDS011;21425;50.454;30.466;2022-11-06T05:38:14;92.20;;;26.38;;
35312;SDS011;21425;50.454;30.466;2022-11-06T05:40:40;92.53;;;27.60;;
35312;SDS011;21425;50.454;30.466;2022-11-06T05:43:06;91.93;;;24.55;;
35312;SDS011;21425;50.454;30.466;2022-11-06T05:45:31;91.32;;;26.15;;
35312;SDS011;21425;50.454;30.466;2022-11-06T05:47:57;90.43;;;26.48;;
35312;SDS011;21425;50.454;30.466;2022-11-06T05:50:22;87.68;;;27.23;;
35312;SDS011;21425;50.454;30.466;2022-11-06T05:52:49;88.82;;;25.35;;
35312;SDS011;21425;50.454;30.466;2022-11-06T05:55:15;81.70;;;26.92;;
35312;SDS011;21425;50.454;30.466;2022-11-06T05:57:41;78.93;;;25.33;;
35312;SDS011;21425;50.454;30.466;2022-11-06T06:00:07;83.75;;;25.70;;
35312;SDS011;21425;50.454;30.466;2022-11-06T06:02:34;85.85;;;26.23;;
35312;SDS011;21425;50.454;30.466;2022-11-06T06:05:00;82.20;;;25.55;;
35312;SDS011;21425;50.454;30.466;2022-11-06T06:07:26;81.20;;;26.23;;
35312;SDS011;21425;50.454;30.466;2022-11-06T06:09:52;87.15;;;26.92;;
35312;SDS011;21425;50.454;30.466;2022-11-06T06:12:17;92.95;;;23.77;;
35312;SDS011;21425;50.454;30.466;2022-11-06T06:14:43;88.45;;;26.67;;
35312;SDS011;21425;50.454;30.466;2022-11-06T06:17:09;96.20;;;28.05;;
35312;SDS011;21425;50.454;30.466;2022-11-06T06:19:34;87.88;;;27.80;;
35312;SDS011;21425;50.454;30.466;2022-11-06T06:22:00;91.13;;;25.58;;
35312;SDS011;21425;50.454;30.466;2022-11-06T06:24:25;102.35;;;27.65;;
35312;SDS011;21425;50.454;30.466;2022-11-06T06:26:54;96.68;;;27.17;;
35312;SDS011;21425;50.454;30.466;2022-11-06T06:29:20;92.95;;;27.00;;
35312;SDS011;21425;50.454;30.466;2022-11-06T06:31:45;100.47;;;27.83;;
35312;SDS011;21425;50.454;30.466;2022-11-06T06:34:11;105.88;;;28.75;;
35312;SDS011;21425;50.454;30.466;2022-11-06T06:36:36;101.82;;;27.70;;
35312;SDS011;21425;50.454;30.466;2022-11-06T06:39:02;93.88;;;28.02;;
35312;SDS011;21425;50.454;30.466;2022-11-06T06:41:27;88.88;;;26.83;;
35312;SDS011;21425;50.454;30.466;2022-11-06T06:43:53;84.18;;;28.13;;
35312;SDS011;21425;50.454;30.466;2022-11-06T06:46:18;98.15;;;29.17;;
35312;SDS011;21425;50.454;30.466;2022-11-06T06:48:44;109.07;;;28.02;;
35312;SDS011;21425;50.454;30.466;2022-11-06T06:51:10;102.63;;;28.73;;
35312;SDS011;21425;50.454;30.466;2022-11-06T06:53:35;115.88;;;32.13;;
35312;SDS011;21425;50.454;30.466;2022-11-06T06:56:01;111.43;;;31.88;;
35312;SDS011;21425;50.454;30.466;2022-11-06T06:58:27;101.22;;;30.30;;
35312;SDS011;21425;50.454;30.466;2022-11-06T07:00:53;101.75;;;30.77;;
35312;SDS011;21425;50.454;30.466;2022-11-06T07:03:19;115.60;;;31.30;;
35312;SDS011;21425;50.454;30.466;2022-11-06T07:05:45;95.90;;;27.80;;
35312;SDS011;21425;50.454;30.466;2022-11-06T07:08:11;108.07;;;27.67;;
35312;SDS011;21425;50.454;30.466;2022-11-06T07:10:37;110.13;;;26.30;;
35312;SDS011;21425;50.454;30.466;2022-11-06T07:13:03;87.80;;;26.40;;
35312;SDS011;21425;50.454;30.466;2022-11-06T07:15:29;105.05;;;26.85;;
35312;SDS011;21425;50.454;30.466;2022-11-06T07:18:02;97.88;;;27.45;;
35312;SDS011;21425;50.454;30.466;2022-11-06T07:20:31;84.65;;;25.52;;
35312;SDS011;21425;50.454;30.466;2022-11-06T07:22:58;97.18;;;27.65;;
35312;SDS011;21425;50.454;30.466;2022-11-06T07:25:24;90.60;;;26.35;;
35312;SDS011;21425;50.454;30.466;2022-11-06T07:27:50;83.43;;;27.50;;
35312;SDS011;21425;50.454;30.466;2022-11-06T07:30:16;85.35;;;24.83;;
35312;SDS011;21425;50.454;30.466;2022-11-06T07:32:41;91.78;;;26.50;;
35312;SDS011;21425;50.454;30.466;2022-11-06T07:35:07;89.95;;;25.50;;
35312;SDS011;21425;50.454;30.466;2022-11-06T07:37:34;89.22;;;25.92;;
35312;SDS011;21425;50.454;30.466;2022-11-06T07:39:59;96.63;;;26.52;;
35312;SDS011;21425;50.454;30.466;2022-11-06T07:42:26;89.60;;;25.42;;
35312;SDS011;21425;50.454;30.466;2022-11-06T07:44:52;81.40;;;24.90;;
35312;SDS011;21425;50.454;30.466;2022-11-06T07:47:19;81.70;;;24.10;;
35312;SDS011;21425;50.454;30.466;2022-11-06T07:49:45;82.70;;;24.42;;
35312;SDS011;21425;50.454;30.466;2022-11-06T07:52:11;78.93;;;25.85;;
35312;SDS011;21425;50.454;30.466;2022-11-06T07:54:36;83.82;;;26.13;;
35312;SDS011;21425;50.454;30.466;2022-11-06T07:57:02;76.15;;;24.65;;
35312;SDS011;21425;50.454;30.466;2022-11-06T07:59:28;76.22;;;23.30;;
35312;SDS011;21425;50.454;30.466;2022-11-06T08:01:53;77.50;;;26.23;;
35312;SDS011;21425;50.454;30.466;2022-11-06T08:04:19;83.82;;;25.67;;
35312;SDS011;21425;50.454;30.466;2022-11-06T08:06:45;69.57;;;25.42;;
35312;SDS011;21425;50.454;30.466;2022-11-06T08:09:10;73.53;;;25.70;;
35312;SDS011;21425;50.454;30.466;2022-11-06T08:11:36;73.78;;;24.20;;
35312;SDS011;21425;50.454;30.466;2022-11-06T08:14:01;70.60;;;24.45;;
35312;SDS011;21425;50.454;30.466;2022-11-06T08:16:27;71.88;;;25.13;;
35312;SDS011;21425;50.454;30.466;2022-11-06T08:18:53;76.68;;;23.95;;
35312;SDS011;21425;50.454;30.466;2022-11-06T08:21:19;72.38;;;24.33;;
35312;SDS011;21425;50.454;30.466;2022-11-06T08:23:44;72.65;;;23.92;;
35312;SDS011;21425;50.454;30.466;2022-11-06T08:26:10;68.53;;;22.33;;
35312;SDS011;21425;50.454;30.466;2022-11-06T08:28:36;70.53;;;24.35;;
35312;SDS011;21425;50.454;30.466;2022-11-06T08:31:03;69.10;;;23.13;;
35312;SDS011;21425;50.454;30.466;2022-11-06T08:33:32;62.15;;;23.70;;
35312;SDS011;21425;50.454;30.466;2022-11-06T08:35:59;74.50;;;24.52;;
35312;SDS011;21425;50.454;30.466;2022-11-06T08:38:27;83.18;;;22.88;;
35312;SDS011;21425;50.454;30.466;2022-11-06T08:40:52;63.33;;;22.25;;
35312;SDS011;21425;50.454;30.466;2022-11-06T08:43:19;74.47;;;24.58;;
35312;SDS011;21425;50.454;30.466;2022-11-06T08:45:47;63.13;;;22.50;;
35312;SDS011;21425;50.454;30.466;2022-11-06T08:48:12;68.00;;;25.25;;
35312;SDS011;21425;50.454;30.466;2022-11-06T08:50:38;55.00;;;21.73;;
35312;SDS011;21425;50.454;30.466;2022-11-06T08:53:05;66.97;;;24.02;;
35312;SDS011;21425;50.454;30.466;2022-11-06T08:55:32;67.50;;;23.73;;
35312;SDS011;21425;50.454;30.466;2022-11-06T08:57:59;69.45;;;23.45;;
35312;SDS011;21425;50.454;30.466;2022-11-06T09:00:25;68.03;;;21.55;;
35312;SDS011;21425;50.454;30.466;2022-11-06T09:02:56;60.33;;;21.33;;
35312;SDS011;21425;50.454;30.466;2022-11-06T09:05:23;59.20;;;21.35;;
35312;SDS011;21425;50.454;30.466;2022-11-06T09:07:48;58.60;;;21.40;;
35312;SDS011;21425;50.454;30.466;2022-11-06T09:10:14;65.88;;;21.80;;
35312;SDS011;21425;50.454;30.466;2022-11-06T09:12:39;64.22;;;21.48;;
35312;SDS011;21425;50.454;30.466;2022-11-06T09:15:05;58.08;;;23.13;;
35312;SDS011;21425;50.454;30.466;2022-11-06T09:17:31;61.50;;;21.77;;
35312;SDS011;21425;50.454;30.466;2022-11-06T09:19:57;56.03;;;20.38;;
35312;SDS011;21425;50.454;30.466;2022-11-06T09:22:23;61.22;;;21.35;;
35312;SDS011;21425;50.454;30.466;2022-11-06T09:24:49;62.70;;;21.60;;
35312;SDS011;21425;50.454;30.466;2022-11-06T09:27:14;58.38;;;21.58;;
35312;SDS011;21425;50.454;30.466;2022-11-06T09:29:40;57.20;;;20.92;;
35312;SDS011;21425;50.454;30.466;2022-11-06T09:32:08;62.83;;;21.02;;
35312;SDS011;21425;50.454;30.466;2022-11-06T09:34:34;59.63;;;20.58;;
35312;SDS011;21425;50.454;30.466;2022-11-06T09:37:00;68.78;;;21.92;;
35312;SDS011;21425;50.454;30.466;2022-11-06T09:39:27;62.90;;;21.73;;
35312;SDS011;21425;50.454;30.466;2022-11-06T09:41:54;60.90;;;22.77;;
35312;SDS011;21425;50.454;30.466;2022-11-06T09:47:27;64.90;;;21.73;;
35312;SDS011;21425;50.454;30.466;2022-11-06T09:49:56;66.40;;;22.58;;
35312;SDS011;21425;50.454;30.466;2022-11-06T09:57:41;69.15;;;22.35;;
35312;SDS011;21425;50.454;30.466;2022-11-06T10:00:20;61.38;;;21.67;;
35312;SDS011;21425;50.454;30.466;2022-11-06T10:02:54;78.45;;;26.60;;
35312;SDS011;21425;50.454;30.466;2022-11-06T10:05:33;71.65;;;23.88;;
35312;SDS011;21425;50.454;30.466;2022-11-06T10:08:20;71.88;;;24.15;;
35312;SDS011;21425;50.454;30.466;2022-11-06T10:16:09;61.53;;;21.33;;
35312;SDS011;21425;50.454;30.466;2022-11-06T10:19:06;64.47;;;21.98;;
35312;SDS011;21425;50.454;30.466;2022-11-06T10:24:23;58.15;;;21.75;;
35312;SDS011;21425;50.454;30.466;2022-11-06T10:27:34;62.55;;;21.92;;
35312;SDS011;21425;50.454;30.466;2022-11-06T10:35:27;57.63;;;20.80;;
35312;SDS011;21425;50.454;30.466;2022-11-06T10:38:06;57.72;;;20.85;;
35312;SDS011;21425;50.454;30.466;2022-11-06T10:40:35;55.95;;;19.38;;
35312;SDS011;21425;50.454;30.466;2022-11-06T10:43:13;50.05;;;19.77;;
35312;SDS011;21425;50.454;30.466;2022-11-06T10:48:45;44.67;;;17.35;;
35312;SDS011;21425;50.454;30.466;2022-11-06T10:53:51;51.38;;;17.10;;
35312;SDS011;21425;50.454;30.466;2022-11-06T10:56:22;50.85;;;19.25;;
35312;SDS011;21425;50.454;30.466;2022-11-06T10:58:49;48.70;;;19.15;;
35312;SDS011;21425;50.454;30.466;2022-11-06T11:01:16;49.60;;;19.90;;
35312;SDS011;21425;50.454;30.466;2022-11-06T11:03:42;42.13;;;16.38;;
35312;SDS011;21425;50.454;30.466;2022-11-06T11:06:09;46.22;;;18.00;;
35312;SDS011;21425;50.454;30.466;2022-11-06T11:08:45;45.95;;;16.98;;
35312;SDS011;21425;50.454;30.466;2022-11-06T11:13:37;44.67;;;17.88;;
35312;SDS011;21425;50.454;30.466;2022-11-06T11:16:13;40.80;;;17.00;;
35312;SDS011;21425;50.454;30.466;2022-11-06T11:18:40;47.47;;;16.58;;
35312;SDS011;21425;50.454;30.466;2022-11-06T11:21:26;44.47;;;17.92;;
35312;SDS011;21425;50.454;30.466;2022-11-06T11:26:36;45.97;;;19.10;;
35312;SDS011;21425;50.454;30.466;2022-11-06T11:29:11;49.17;;;18.75;;
35312;SDS011;21425;50.454;30.466;2022-11-06T11:31:40;45.55;;;18.50;;
35312;SDS011;21425;50.454;30.466;2022-11-06T11:34:14;58.92;;;21.20;;
35312;SDS011;21425;50.454;30.466;2022-11-06T11:36:50;47.75;;;18.90;;
35312;SDS011;21425;50.454;30.466;2022-11-06T11:39:18;43.83;;;18.20;;
35312;SDS011;21425;50.454;30.466;2022-11-06T11:41:47;52.25;;;18.58;;
35312;SDS011;21425;50.454;30.466;2022-11-06T11:44:14;49.45;;;18.45;;
35312;SDS011;21425;50.454;30.466;2022-11-06T11:46:51;47.83;;;18.52;;
35312;SDS011;21425;50.454;30.466;2022-11-06T11:49:30;47.92;;;18.38;;
35312;SDS011;21425;50.454;30.466;2022-11-06T11:51:58;46.42;;;17.70;;
35312;SDS011;21425;50.454;30.466;2022-11-06T11:54:30;55.83;;;20.27;;
35312;SDS011;21425;50.454;30.466;2022-11-06T11:57:01;53.55;;;22.15;;
35312;SDS011;21425;50.454;30.466;2022-11-06T11:59:29;43.33;;;17.98;;
35312;SDS011;21425;50.454;30.466;2022-11-06T12:05:01;40.78;;;17.15;;
35312;SDS011;21425;50.454;30.466;2022-11-06T12:07:37;47.53;;;18.58;;
35312;SDS011;21425;50.454;30.466;2022-11-06T12:10:21;42.95;;;16.60;;
35312;SDS011;21425;50.454;30.466;2022-11-06T12:12:59;45.40;;;17.35;;
35312;SDS011;21425;50.454;30.466;2022-11-06T12:15:43;47.78;;;17.52;;
35312;SDS011;21425;50.454;30.466;2022-11-06T12:18:26;48.03;;;18.33;;
35312;SDS011;21425;50.454;30.466;2022-11-06T12:21:10;48.50;;;19.38;;
35312;SDS011;21425;50.454;30.466;2022-11-06T12:26:34;53.30;;;20.65;;
35312;SDS011;21425;50.454;30.466;2022-11-06T12:31:54;46.53;;;19.33;;
35312;SDS011;21425;50.454;30.466;2022-11-06T12:34:35;51.72;;;20.05;;
35312;SDS011;21425;50.454;30.466;2022-11-06T12:37:44;47.72;;;18.77;;
35312;SDS011;21425;50.454;30.466;2022-11-06T12:40:17;45.30;;;18.75;;
35312;SDS011;21425;50.454;30.466;2022-11-06T12:42:50;45.55;;;19.00;;
35312;SDS011;21425;50.454;30.466;2022-11-06T12:45:40;52.83;;;19.25;;
35312;SDS011;21425;50.454;30.466;2022-11-06T12:51:45;46.90;;;20.27;;
35312;SDS011;21425;50.454;30.466;2022-11-06T13:05:01;50.08;;;20.55;;
35312;SDS011;21425;50.454;30.466;2022-11-06T13:16:02;49.22;;;19.25;;
35312;SDS011;21425;50.454;30.466;2022-11-06T13:18:44;49.22;;;20.65;;
35312;SDS011;21425;50.454;30.466;2022-11-06T13:21:22;48.88;;;20.45;;
35312;SDS011;21425;50.454;30.466;2022-11-06T13:24:02;54.05;;;22.40;;
35312;SDS011;21425;50.454;30.466;2022-11-06T13:26:43;59.58;;;21.67;;
35312;SDS011;21425;50.454;30.466;2022-11-06T13:29:14;57.25;;;23.23;;
35312;SDS011;21425;50.454;30.466;2022-11-06T13:31:45;52.78;;;21.98;;
35312;SDS011;21425;50.454;30.466;2022-11-06T13:34:22;51.90;;;20.52;;
35312;SDS011;21425;50.454;30.466;2022-11-06T13:36:50;46.65;;;19.77;;
35312;SDS011;21425;50.454;30.466;2022-11-06T13:39:18;57.15;;;21.85;;
35312;SDS011;21425;50.454;30.466;2022-11-06T13:41:51;57.90;;;22.52;;
35312;SDS011;21425;50.454;30.466;2022-11-06T13:44:19;57.22;;;22.38;;
35312;SDS011;21425;50.454;30.466;2022-11-06T13:47:08;59.83;;;22.70;;
35312;SDS011;21425;50.454;30.466;2022-11-06T13:52:44;52.45;;;20.58;;
35312;SDS011;21425;50.454;30.466;2022-11-06T13:55:44;53.90;;;22.75;;
35312;SDS011;21425;50.454;30.466;2022-11-06T13:58:36;51.45;;;19.63;;
35312;SDS011;21425;50.454;30.466;2022-11-06T14:01:41;57.75;;;21.90;;
35312;SDS011;21425;50.454;30.466;2022-11-06T14:06:35;52.03;;;20.30;;
35312;SDS011;21425;50.454;30.466;2022-11-06T14:09:19;50.30;;;19.48;;
35312;SDS011;21425;50.454;30.466;2022-11-06T14:11:57;43.80;;;18.45;;
35312;SDS011;21425;50.454;30.466;2022-11-06T14:14:30;42.65;;;17.90;;
35312;SDS011;21425;50.454;30.466;2022-11-06T14:17:10;41.35;;;16.65;;
35312;SDS011;21425;50.454;30.466;2022-11-06T14:19:40;46.20;;;17.60;;
35312;SDS011;21425;50.454;30.466;2022-11-06T14:22:33;38.85;;;17.35;;
35312;SDS011;21425;50.454;30.466;2022-11-06T14:30:35;54.90;;;20.63;;
35312;SDS011;21425;50.454;30.466;2022-11-06T14:33:08;51.83;;;20.92;;
35312;SDS011;21425;50.454;30.466;2022-11-06T14:40:53;47.17;;;19.63;;
35312;SDS011;21425;50.454;30.466;2022-11-06T14:48:25;46.65;;;17.85;;
35312;SDS011;21425;50.454;30.466;2022-11-06T14:50:56;48.00;;;17.80;;
35312;SDS011;21425;50.454;30.466;2022-11-06T14:53:25;42.95;;;16.42;;
35312;SDS011;21425;50.454;30.466;2022-11-06T14:55:57;43.90;;;18.10;;
35312;SDS011;21425;50.454;30.466;2022-11-06T15:03:34;53.17;;;19.65;;
35312;SDS011;21425;50.454;30.466;2022-11-06T15:11:09;54.22;;;22.73;;
35312;SDS011;21425;50.454;30.466;2022-11-06T15:16:20;50.70;;;20.08;;
35312;SDS011;21425;50.454;30.466;2022-11-06T15:18:48;46.60;;;20.55;;
35312;SDS011;21425;50.454;30.466;2022-11-06T15:21:16;49.00;;;20.52;;
35312;SDS011;21425;50.454;30.466;2022-11-06T15:24:05;50.92;;;20.17;;
35312;SDS011;21425;50.454;30.466;2022-11-06T15:26:53;49.28;;;18.73;;
35312;SDS011;21425;50.454;30.466;2022-11-06T15:29:33;55.78;;;20.77;;
35312;SDS011;21425;50.454;30.466;2022-11-06T15:32:08;55.90;;;22.50;;
35312;SDS011;21425;50.454;30.466;2022-11-06T15:34:37;63.80;;;23.55;;
35312;SDS011;21425;50.454;30.466;2022-11-06T15:37:20;66.97;;;23.58;;
35312;SDS011;21425;50.454;30.466;2022-11-06T15:39:52;57.30;;;23.25;;
35312;SDS011;21425;50.454;30.466;2022-11-06T15:42:19;60.15;;;22.80;;
35312;SDS011;21425;50.454;30.466;2022-11-06T15:44:48;68.63;;;24.20;;
35312;SDS011;21425;50.454;30.466;2022-11-06T15:47:19;63.92;;;23.83;;
35312;SDS011;21425;50.454;30.466;2022-11-06T15:49:47;59.88;;;24.17;;
35312;SDS011;21425;50.454;30.466;2022-11-06T15:52:16;64.80;;;22.73;;
35312;SDS011;21425;50.454;30.466;2022-11-06T15:54:43;63.95;;;23.92;;
35312;SDS011;21425;50.454;30.466;2022-11-06T15:57:19;67.82;;;22.60;;
35312;SDS011;21425;50.454;30.466;2022-11-06T15:59:47;67.90;;;23.80;;
35312;SDS011;21425;50.454;30.466;2022-11-06T16:02:18;57.65;;;23.20;;
35312;SDS011;21425;50.454;30.466;2022-11-06T16:04:46;61.03;;;22.17;;
35312;SDS011;21425;50.454;30.466;2022-11-06T16:07:13;65.88;;;22.90;;
35312;SDS011;21425;50.454;30.466;2022-11-06T16:09:41;66.18;;;22.77;;
35312;SDS011;21425;50.454;30.466;2022-11-06T16:12:11;62.03;;;22.95;;
35312;SDS011;21425;50.454;30.466;2022-11-06T16:14:40;60.33;;;22.75;;
35312;SDS011;21425;50.454;30.466;2022-11-06T16:17:10;61.22;;;21.63;;
35312;SDS011;21425;50.454;30.466;2022-11-06T16:19:47;57.15;;;22.02;;
35312;SDS011;21425;50.454;30.466;2022-11-06T16:22:17;58.20;;;23.17;;
35312;SDS011;21425;50.454;30.466;2022-11-06T16:24:47;58.03;;;21.17;;
35312;SDS011;21425;50.454;30.466;2022-11-06T16:27:17;54.08;;;20.15;;
35312;SDS011;21425;50.454;30.466;2022-11-06T16:29:44;63.55;;;22.50;;
35312;SDS011;21425;50.454;30.466;2022-11-06T16:32:19;58.85;;;23.10;;
35312;SDS011;21425;50.454;30.466;2022-11-06T16:34:48;58.22;;;21.63;;
35312;SDS011;21425;50.454;30.466;2022-11-06T16:39:44;54.15;;;20.88;;
35312;SDS011;21425;50.454;30.466;2022-11-06T16:49:35;62.03;;;22.38;;
35312;SDS011;21425;50.454;30.466;2022-11-06T16:52:02;59.75;;;21.05;;
35312;SDS011;21425;50.454;30.466;2022-11-06T16:54:51;57.45;;;22.15;;